Terminal Aerodrome Forecast
Issued by NWS

Home | Current Version | Previous Version | Graphics & Text | Print | Product List | Glossary On
Versions: 1 2 3 4 5 6 7 8 9 10 11 12 13 14 15 16 17
000
FTUS43 KUNR 270149 AAA
TAFGCC
TAF AMD
KGCC 270149Z 2702/2724 31005KT P6SM OVC050
     FM270600 30005KT P6SM -SHRA BKN025
     FM270700 30005KT P6SM VCSH BKN040
     FM271200 27006KT P6SM BKN100
     FM271400 31008KT P6SM SCT150
     FM271900 34010KT P6SM BKN100=

USA.gov is the U.S. government's official web portal to all federal, state and local government web resources and services.